sensor_id;sensor_type;location;lat;lon;timestamp;P1;durP1;ratioP1;P2;durP2;ratioP2
52734;SDS011;38631;47.572;10.704;2023-08-06T00:00:35;2.10;;;1.70;;
52734;SDS011;38631;47.572;10.704;2023-08-06T00:03:01;2.65;;;1.60;;
52734;SDS011;38631;47.572;10.704;2023-08-06T00:05:26;2.00;;;1.40;;
52734;SDS011;38631;47.572;10.704;2023-08-06T00:07:52;2.45;;;1.20;;
52734;SDS011;38631;47.572;10.704;2023-08-06T00:10:17;1.60;;;1.45;;
52734;SDS011;38631;47.572;10.704;2023-08-06T00:12:43;3.58;;;1.90;;
52734;SDS011;38631;47.572;10.704;2023-08-06T00:15:09;4.75;;;1.95;;
52734;SDS011;38631;47.572;10.704;2023-08-06T00:17:36;2.85;;;1.80;;
52734;SDS011;38631;47.572;10.704;2023-08-06T00:20:02;3.15;;;1.35;;
52734;SDS011;38631;47.572;10.704;2023-08-06T00:22:34;2.20;;;1.65;;
52734;SDS011;38631;47.572;10.704;2023-08-06T00:25:00;2.75;;;1.83;;
52734;SDS011;38631;47.572;10.704;2023-08-06T00:27:25;3.20;;;1.50;;
52734;SDS011;38631;47.572;10.704;2023-08-06T00:29:51;3.50;;;1.95;;
52734;SDS011;38631;47.572;10.704;2023-08-06T00:32:17;3.10;;;1.90;;
52734;SDS011;38631;47.572;10.704;2023-08-06T00:34:42;2.63;;;1.63;;
52734;SDS011;38631;47.572;10.704;2023-08-06T00:37:08;3.15;;;1.70;;
52734;SDS011;38631;47.572;10.704;2023-08-06T00:39:33;3.35;;;1.77;;
52734;SDS011;38631;47.572;10.704;2023-08-06T00:41:58;1.92;;;1.50;;
52734;SDS011;38631;47.572;10.704;2023-08-06T00:44:24;2.10;;;1.42;;
52734;SDS011;38631;47.572;10.704;2023-08-06T00:46:49;3.38;;;1.80;;
52734;SDS011;38631;47.572;10.704;2023-08-06T00:49:15;2.85;;;1.88;;
52734;SDS011;38631;47.572;10.704;2023-08-06T00:51:40;2.53;;;1.40;;
52734;SDS011;38631;47.572;10.704;2023-08-06T00:54:07;4.18;;;1.60;;
52734;SDS011;38631;47.572;10.704;2023-08-06T00:56:32;2.80;;;1.52;;
52734;SDS011;38631;47.572;10.704;2023-08-06T00:59:00;3.92;;;2.40;;
52734;SDS011;38631;47.572;10.704;2023-08-06T01:01:26;2.63;;;1.77;;
52734;SDS011;38631;47.572;10.704;2023-08-06T01:03:51;3.03;;;1.63;;
52734;SDS011;38631;47.572;10.704;2023-08-06T01:06:19;2.58;;;1.33;;
52734;SDS011;38631;47.572;10.704;2023-08-06T01:08:55;2.10;;;1.30;;
52734;SDS011;38631;47.572;10.704;2023-08-06T01:14:13;2.10;;;1.45;;
52734;SDS011;38631;47.572;10.704;2023-08-06T01:16:49;1.73;;;1.13;;
52734;SDS011;38631;47.572;10.704;2023-08-06T01:19:16;2.95;;;1.10;;
52734;SDS011;38631;47.572;10.704;2023-08-06T01:24:11;1.50;;;1.03;;
52734;SDS011;38631;47.572;10.704;2023-08-06T01:26:39;1.92;;;1.35;;
52734;SDS011;38631;47.572;10.704;2023-08-06T01:29:15;1.58;;;1.15;;
52734;SDS011;38631;47.572;10.704;2023-08-06T01:32:01;3.47;;;1.40;;
52734;SDS011;38631;47.572;10.704;2023-08-06T01:34:29;1.85;;;1.35;;
52734;SDS011;38631;47.572;10.704;2023-08-06T01:36:57;2.25;;;1.17;;
52734;SDS011;38631;47.572;10.704;2023-08-06T01:39:25;2.08;;;1.30;;
52734;SDS011;38631;47.572;10.704;2023-08-06T01:41:51;2.95;;;1.45;;
52734;SDS011;38631;47.572;10.704;2023-08-06T01:44:16;2.28;;;1.42;;
52734;SDS011;38631;47.572;10.704;2023-08-06T01:46:42;1.85;;;1.23;;
52734;SDS011;38631;47.572;10.704;2023-08-06T01:49:08;1.90;;;1.20;;
52734;SDS011;38631;47.572;10.704;2023-08-06T01:51:33;3.40;;;1.35;;
52734;SDS011;38631;47.572;10.704;2023-08-06T01:53:58;1.63;;;1.25;;
52734;SDS011;38631;47.572;10.704;2023-08-06T01:56:24;1.70;;;1.35;;
52734;SDS011;38631;47.572;10.704;2023-08-06T01:58:49;3.08;;;2.03;;
52734;SDS011;38631;47.572;10.704;2023-08-06T02:01:14;3.13;;;1.48;;
52734;SDS011;38631;47.572;10.704;2023-08-06T02:03:40;3.75;;;1.55;;
52734;SDS011;38631;47.572;10.704;2023-08-06T02:06:05;2.05;;;1.42;;
52734;SDS011;38631;47.572;10.704;2023-08-06T02:08:31;2.25;;;1.67;;
52734;SDS011;38631;47.572;10.704;2023-08-06T02:10:56;1.98;;;1.35;;
52734;SDS011;38631;47.572;10.704;2023-08-06T02:13:23;1.77;;;1.23;;
52734;SDS011;38631;47.572;10.704;2023-08-06T02:15:48;2.20;;;1.40;;
52734;SDS011;38631;47.572;10.704;2023-08-06T02:18:14;3.78;;;1.85;;
52734;SDS011;38631;47.572;10.704;2023-08-06T02:20:41;1.70;;;1.20;;
52734;SDS011;38631;47.572;10.704;2023-08-06T02:23:06;1.80;;;1.17;;
52734;SDS011;38631;47.572;10.704;2023-08-06T02:25:32;2.55;;;1.40;;
52734;SDS011;38631;47.572;10.704;2023-08-06T02:27:57;3.60;;;1.10;;
52734;SDS011;38631;47.572;10.704;2023-08-06T02:30:23;3.28;;;1.20;;
52734;SDS011;38631;47.572;10.704;2023-08-06T02:32:49;1.88;;;1.13;;
52734;SDS011;38631;47.572;10.704;2023-08-06T02:35:14;1.80;;;1.02;;
52734;SDS011;38631;47.572;10.704;2023-08-06T02:37:40;1.80;;;0.90;;
52734;SDS011;38631;47.572;10.704;2023-08-06T02:40:05;1.45;;;1.02;;
52734;SDS011;38631;47.572;10.704;2023-08-06T02:42:31;6.15;;;1.10;;
52734;SDS011;38631;47.572;10.704;2023-08-06T02:44:56;0.90;;;0.80;;
52734;SDS011;38631;47.572;10.704;2023-08-06T02:47:22;2.80;;;1.10;;
52734;SDS011;38631;47.572;10.704;2023-08-06T02:49:47;1.70;;;0.80;;
52734;SDS011;38631;47.572;10.704;2023-08-06T02:52:12;1.63;;;0.80;;
52734;SDS011;38631;47.572;10.704;2023-08-06T02:54:38;1.20;;;0.90;;
52734;SDS011;38631;47.572;10.704;2023-08-06T02:57:03;1.27;;;0.90;;
52734;SDS011;38631;47.572;10.704;2023-08-06T02:59:30;1.20;;;0.80;;
52734;SDS011;38631;47.572;10.704;2023-08-06T03:01:55;1.63;;;0.90;;
52734;SDS011;38631;47.572;10.704;2023-08-06T03:04:20;1.80;;;0.90;;
52734;SDS011;38631;47.572;10.704;2023-08-06T03:06:46;1.48;;;0.90;;
52734;SDS011;38631;47.572;10.704;2023-08-06T03:09:11;3.28;;;1.00;;
52734;SDS011;38631;47.572;10.704;2023-08-06T03:11:37;1.40;;;0.90;;
52734;SDS011;38631;47.572;10.704;2023-08-06T03:14:02;1.58;;;0.95;;
52734;SDS011;38631;47.572;10.704;2023-08-06T03:16:27;0.85;;;0.60;;
52734;SDS011;38631;47.572;10.704;2023-08-06T03:18:53;1.73;;;1.00;;
52734;SDS011;38631;47.572;10.704;2023-08-06T03:21:18;1.08;;;0.90;;
52734;SDS011;38631;47.572;10.704;2023-08-06T03:23:46;1.30;;;0.85;;
52734;SDS011;38631;47.572;10.704;2023-08-06T03:26:12;1.38;;;0.75;;
52734;SDS011;38631;47.572;10.704;2023-08-06T03:28:37;1.00;;;0.73;;
52734;SDS011;38631;47.572;10.704;2023-08-06T03:31:03;1.42;;;0.80;;
52734;SDS011;38631;47.572;10.704;2023-08-06T03:33:29;1.60;;;0.90;;
52734;SDS011;38631;47.572;10.704;2023-08-06T03:35:55;1.40;;;0.80;;
52734;SDS011;38631;47.572;10.704;2023-08-06T03:38:20;1.58;;;1.08;;
52734;SDS011;38631;47.572;10.704;2023-08-06T03:40:46;1.50;;;0.80;;
52734;SDS011;38631;47.572;10.704;2023-08-06T03:43:11;2.15;;;0.70;;
52734;SDS011;38631;47.572;10.704;2023-08-06T03:45:37;1.00;;;0.70;;
52734;SDS011;38631;47.572;10.704;2023-08-06T03:48:02;1.10;;;0.60;;
52734;SDS011;38631;47.572;10.704;2023-08-06T03:50:28;2.95;;;0.82;;
52734;SDS011;38631;47.572;10.704;2023-08-06T03:52:54;1.15;;;0.70;;
52734;SDS011;38631;47.572;10.704;2023-08-06T03:55:19;1.17;;;0.77;;
52734;SDS011;38631;47.572;10.704;2023-08-06T03:57:45;1.02;;;0.70;;
52734;SDS011;38631;47.572;10.704;2023-08-06T04:00:11;1.02;;;0.73;;
52734;SDS011;38631;47.572;10.704;2023-08-06T04:02:37;2.38;;;1.00;;
52734;SDS011;38631;47.572;10.704;2023-08-06T04:05:02;1.35;;;1.00;;
52734;SDS011;38631;47.572;10.704;2023-08-06T04:07:28;1.60;;;0.90;;
52734;SDS011;38631;47.572;10.704;2023-08-06T04:09:54;2.35;;;1.00;;
52734;SDS011;38631;47.572;10.704;2023-08-06T04:12:21;3.67;;;1.15;;
52734;SDS011;38631;47.572;10.704;2023-08-06T04:14:47;2.08;;;1.17;;
52734;SDS011;38631;47.572;10.704;2023-08-06T04:17:12;1.48;;;1.10;;
52734;SDS011;38631;47.572;10.704;2023-08-06T04:19:38;2.80;;;1.50;;
52734;SDS011;38631;47.572;10.704;2023-08-06T04:22:03;3.55;;;1.38;;
52734;SDS011;38631;47.572;10.704;2023-08-06T04:24:28;2.67;;;1.50;;
52734;SDS011;38631;47.572;10.704;2023-08-06T04:26:54;3.30;;;1.35;;
52734;SDS011;38631;47.572;10.704;2023-08-06T04:29:19;1.52;;;0.90;;
52734;SDS011;38631;47.572;10.704;2023-08-06T04:31:44;1.27;;;0.77;;
52734;SDS011;38631;47.572;10.704;2023-08-06T04:34:10;2.00;;;1.00;;
52734;SDS011;38631;47.572;10.704;2023-08-06T04:36:35;2.42;;;0.70;;
52734;SDS011;38631;47.572;10.704;2023-08-06T04:39:00;1.73;;;1.05;;
52734;SDS011;38631;47.572;10.704;2023-08-06T04:41:26;2.67;;;0.80;;
52734;SDS011;38631;47.572;10.704;2023-08-06T04:43:51;3.33;;;1.08;;
52734;SDS011;38631;47.572;10.704;2023-08-06T04:46:16;2.75;;;0.88;;
52734;SDS011;38631;47.572;10.704;2023-08-06T04:48:42;1.65;;;0.80;;
52734;SDS011;38631;47.572;10.704;2023-08-06T04:51:07;2.88;;;1.20;;
52734;SDS011;38631;47.572;10.704;2023-08-06T04:53:33;3.13;;;0.98;;
52734;SDS011;38631;47.572;10.704;2023-08-06T04:55:58;2.22;;;0.90;;
52734;SDS011;38631;47.572;10.704;2023-08-06T04:58:23;2.30;;;0.70;;
52734;SDS011;38631;47.572;10.704;2023-08-06T05:00:49;3.58;;;1.00;;
52734;SDS011;38631;47.572;10.704;2023-08-06T05:03:14;1.60;;;1.00;;
52734;SDS011;38631;47.572;10.704;2023-08-06T05:05:40;3.05;;;1.13;;
52734;SDS011;38631;47.572;10.704;2023-08-06T05:08:06;2.30;;;1.20;;
52734;SDS011;38631;47.572;10.704;2023-08-06T05:10:31;1.45;;;1.20;;
52734;SDS011;38631;47.572;10.704;2023-08-06T05:12:57;2.53;;;1.00;;
52734;SDS011;38631;47.572;10.704;2023-08-06T05:15:22;1.52;;;0.85;;
52734;SDS011;38631;47.572;10.704;2023-08-06T05:17:50;3.03;;;0.90;;
52734;SDS011;38631;47.572;10.704;2023-08-06T05:20:15;2.45;;;0.93;;
52734;SDS011;38631;47.572;10.704;2023-08-06T05:22:42;2.72;;;0.93;;
52734;SDS011;38631;47.572;10.704;2023-08-06T05:25:08;1.90;;;1.00;;
52734;SDS011;38631;47.572;10.704;2023-08-06T05:27:33;2.08;;;1.08;;
52734;SDS011;38631;47.572;10.704;2023-08-06T05:29:59;1.48;;;0.77;;
52734;SDS011;38631;47.572;10.704;2023-08-06T05:32:24;1.58;;;0.98;;
52734;SDS011;38631;47.572;10.704;2023-08-06T05:34:50;1.80;;;0.85;;
52734;SDS011;38631;47.572;10.704;2023-08-06T05:37:15;2.15;;;0.90;;
52734;SDS011;38631;47.572;10.704;2023-08-06T05:39:40;4.45;;;1.20;;
52734;SDS011;38631;47.572;10.704;2023-08-06T05:42:06;3.10;;;0.77;;
52734;SDS011;38631;47.572;10.704;2023-08-06T05:44:31;1.85;;;0.60;;
52734;SDS011;38631;47.572;10.704;2023-08-06T05:46:57;2.05;;;0.77;;
52734;SDS011;38631;47.572;10.704;2023-08-06T05:49:22;1.05;;;0.68;;
52734;SDS011;38631;47.572;10.704;2023-08-06T05:51:47;3.08;;;1.58;;
52734;SDS011;38631;47.572;10.704;2023-08-06T05:54:13;1.45;;;0.90;;
52734;SDS011;38631;47.572;10.704;2023-08-06T05:56:39;2.33;;;1.02;;
52734;SDS011;38631;47.572;10.704;2023-08-06T05:59:04;1.90;;;0.90;;
52734;SDS011;38631;47.572;10.704;2023-08-06T06:01:29;2.15;;;0.75;;
52734;SDS011;38631;47.572;10.704;2023-08-06T06:03:55;4.50;;;0.80;;
52734;SDS011;38631;47.572;10.704;2023-08-06T06:06:20;2.08;;;0.90;;
52734;SDS011;38631;47.572;10.704;2023-08-06T06:08:45;1.58;;;0.90;;
52734;SDS011;38631;47.572;10.704;2023-08-06T06:11:11;3.10;;;0.90;;
52734;SDS011;38631;47.572;10.704;2023-08-06T06:13:36;1.73;;;0.73;;
52734;SDS011;38631;47.572;10.704;2023-08-06T06:16:02;2.30;;;0.60;;
52734;SDS011;38631;47.572;10.704;2023-08-06T06:18:27;1.60;;;0.65;;
52734;SDS011;38631;47.572;10.704;2023-08-06T06:20:52;2.10;;;0.75;;
52734;SDS011;38631;47.572;10.704;2023-08-06T06:23:18;1.92;;;0.90;;
52734;SDS011;38631;47.572;10.704;2023-08-06T06:25:44;1.58;;;0.60;;
52734;SDS011;38631;47.572;10.704;2023-08-06T06:28:12;1.40;;;0.70;;
52734;SDS011;38631;47.572;10.704;2023-08-06T06:30:38;1.92;;;0.70;;
52734;SDS011;38631;47.572;10.704;2023-08-06T06:33:03;1.20;;;0.90;;
52734;SDS011;38631;47.572;10.704;2023-08-06T06:35:28;1.45;;;0.70;;
52734;SDS011;38631;47.572;10.704;2023-08-06T06:37:54;2.75;;;0.80;;
52734;SDS011;38631;47.572;10.704;2023-08-06T06:40:20;1.52;;;0.80;;
52734;SDS011;38631;47.572;10.704;2023-08-06T06:42:45;1.15;;;0.60;;
52734;SDS011;38631;47.572;10.704;2023-08-06T06:45:10;6.38;;;0.50;;
52734;SDS011;38631;47.572;10.704;2023-08-06T06:47:36;2.97;;;1.02;;
52734;SDS011;38631;47.572;10.704;2023-08-06T06:50:01;2.45;;;1.17;;
52734;SDS011;38631;47.572;10.704;2023-08-06T06:52:27;1.48;;;0.57;;
52734;SDS011;38631;47.572;10.704;2023-08-06T06:54:52;2.45;;;0.88;;
52734;SDS011;38631;47.572;10.704;2023-08-06T06:57:17;1.85;;;0.57;;
52734;SDS011;38631;47.572;10.704;2023-08-06T06:59:43;1.15;;;0.55;;
52734;SDS011;38631;47.572;10.704;2023-08-06T07:02:08;2.80;;;0.55;;
52734;SDS011;38631;47.572;10.704;2023-08-06T07:04:33;0.95;;;0.50;;
52734;SDS011;38631;47.572;10.704;2023-08-06T07:06:59;4.45;;;0.70;;
52734;SDS011;38631;47.572;10.704;2023-08-06T07:09:24;1.83;;;0.40;;
52734;SDS011;38631;47.572;10.704;2023-08-06T07:11:49;1.42;;;0.70;;
52734;SDS011;38631;47.572;10.704;2023-08-06T07:14:15;2.38;;;0.60;;
52734;SDS011;38631;47.572;10.704;2023-08-06T07:16:40;1.13;;;0.50;;
52734;SDS011;38631;47.572;10.704;2023-08-06T07:19:05;2.00;;;0.30;;
52734;SDS011;38631;47.572;10.704;2023-08-06T07:21:31;1.05;;;0.50;;
52734;SDS011;38631;47.572;10.704;2023-08-06T07:23:57;1.02;;;0.40;;
52734;SDS011;38631;47.572;10.704;2023-08-06T07:26:24;2.85;;;0.50;;
52734;SDS011;38631;47.572;10.704;2023-08-06T07:28:49;0.80;;;0.30;;
52734;SDS011;38631;47.572;10.704;2023-08-06T07:31:15;1.00;;;0.40;;
52734;SDS011;38631;47.572;10.704;2023-08-06T07:33:40;0.43;;;0.20;;
52734;SDS011;38631;47.572;10.704;2023-08-06T07:36:12;0.20;;;0.10;;
52734;SDS011;38631;47.572;10.704;2023-08-06T07:38:38;0.85;;;0.20;;
52734;SDS011;38631;47.572;10.704;2023-08-06T07:41:04;0.60;;;0.30;;
52734;SDS011;38631;47.572;10.704;2023-08-06T07:43:30;1.67;;;0.85;;
52734;SDS011;38631;47.572;10.704;2023-08-06T07:45:58;1.05;;;0.32;;
52734;SDS011;38631;47.572;10.704;2023-08-06T07:48:27;1.25;;;0.50;;
52734;SDS011;38631;47.572;10.704;2023-08-06T07:50:53;0.70;;;0.22;;
52734;SDS011;38631;47.572;10.704;2023-08-06T07:53:23;0.10;;;0.10;;
52734;SDS011;38631;47.572;10.704;2023-08-06T07:55:51;0.40;;;0.20;;
52734;SDS011;38631;47.572;10.704;2023-08-06T07:58:18;1.70;;;0.00;;
52734;SDS011;38631;47.572;10.704;2023-08-06T08:00:44;0.30;;;0.10;;
52734;SDS011;38631;47.572;10.704;2023-08-06T08:03:13;0.32;;;0.13;;
52734;SDS011;38631;47.572;10.704;2023-08-06T08:05:40;0.52;;;0.10;;
52734;SDS011;38631;47.572;10.704;2023-08-06T08:08:05;0.20;;;0.20;;
52734;SDS011;38631;47.572;10.704;2023-08-06T08:10:32;0.50;;;0.20;;
52734;SDS011;38631;47.572;10.704;2023-08-06T08:12:57;0.20;;;0.10;;
52734;SDS011;38631;47.572;10.704;2023-08-06T08:15:24;0.95;;;0.20;;
52734;SDS011;38631;47.572;10.704;2023-08-06T08:17:52;0.52;;;0.30;;
52734;SDS011;38631;47.572;10.704;2023-08-06T08:20:18;0.93;;;0.20;;
52734;SDS011;38631;47.572;10.704;2023-08-06T08:22:43;0.55;;;0.20;;
52734;SDS011;38631;47.572;10.704;2023-08-06T08:25:09;0.20;;;0.17;;
52734;SDS011;38631;47.572;10.704;2023-08-06T08:27:34;0.52;;;0.10;;
52734;SDS011;38631;47.572;10.704;2023-08-06T08:29:59;0.63;;;0.15;;
52734;SDS011;38631;47.572;10.704;2023-08-06T08:32:25;0.90;;;0.17;;
52734;SDS011;38631;47.572;10.704;2023-08-06T08:34:50;1.85;;;0.10;;
52734;SDS011;38631;47.572;10.704;2023-08-06T08:37:16;0.90;;;0.20;;
52734;SDS011;38631;47.572;10.704;2023-08-06T08:39:41;1.27;;;0.25;;
52734;SDS011;38631;47.572;10.704;2023-08-06T08:42:06;0.47;;;0.25;;
52734;SDS011;38631;47.572;10.704;2023-08-06T08:44:32;0.20;;;0.10;;
52734;SDS011;38631;47.572;10.704;2023-08-06T08:46:59;1.27;;;0.10;;
52734;SDS011;38631;47.572;10.704;2023-08-06T08:49:24;0.80;;;0.10;;
52734;SDS011;38631;47.572;10.704;2023-08-06T08:51:53;0.15;;;0.15;;
52734;SDS011;38631;47.572;10.704;2023-08-06T08:54:20;1.63;;;0.13;;
52734;SDS011;38631;47.572;10.704;2023-08-06T08:56:48;0.25;;;0.15;;
52734;SDS011;38631;47.572;10.704;2023-08-06T08:59:14;0.40;;;0.15;;
52734;SDS011;38631;47.572;10.704;2023-08-06T09:01:39;1.42;;;0.47;;
52734;SDS011;38631;47.572;10.704;2023-08-06T09:04:07;1.45;;;0.20;;
52734;SDS011;38631;47.572;10.704;2023-08-06T09:06:34;0.65;;;0.10;;
52734;SDS011;38631;47.572;10.704;2023-08-06T09:09:07;1.02;;;0.20;;
52734;SDS011;38631;47.572;10.704;2023-08-06T09:11:35;0.60;;;0.30;;
52734;SDS011;38631;47.572;10.704;2023-08-06T09:14:07;1.08;;;0.20;;
52734;SDS011;38631;47.572;10.704;2023-08-06T09:16:36;1.40;;;0.10;;
52734;SDS011;38631;47.572;10.704;2023-08-06T09:19:09;0.30;;;0.10;;
52734;SDS011;38631;47.572;10.704;2023-08-06T09:21:39;1.42;;;0.50;;
52734;SDS011;38631;47.572;10.704;2023-08-06T09:24:11;1.17;;;0.30;;
52734;SDS011;38631;47.572;10.704;2023-08-06T09:26:39;0.52;;;0.25;;
52734;SDS011;38631;47.572;10.704;2023-08-06T09:29:06;0.88;;;0.30;;
52734;SDS011;38631;47.572;10.704;2023-08-06T09:31:33;1.35;;;0.80;;
52734;SDS011;38631;47.572;10.704;2023-08-06T09:34:09;0.70;;;0.35;;
52734;SDS011;38631;47.572;10.704;2023-08-06T09:36:46;1.05;;;0.43;;
52734;SDS011;38631;47.572;10.704;2023-08-06T09:39:15;0.10;;;0.10;;
52734;SDS011;38631;47.572;10.704;2023-08-06T09:41:41;0.98;;;0.75;;
52734;SDS011;38631;47.572;10.704;2023-08-06T09:44:21;0.88;;;0.20;;
52734;SDS011;38631;47.572;10.704;2023-08-06T09:46:49;0.80;;;0.10;;
52734;SDS011;38631;47.572;10.704;2023-08-06T09:49:17;0.60;;;0.30;;
52734;SDS011;38631;47.572;10.704;2023-08-06T09:51:44;2.50;;;1.38;;
52734;SDS011;38631;47.572;10.704;2023-08-06T09:54:13;0.73;;;0.47;;
52734;SDS011;38631;47.572;10.704;2023-08-06T09:59:07;0.13;;;0.13;;
52734;SDS011;38631;47.572;10.704;2023-08-06T10:01:35;0.30;;;0.15;;
52734;SDS011;38631;47.572;10.704;2023-08-06T10:04:02;0.00;;;0.00;;
52734;SDS011;38631;47.572;10.704;2023-08-06T10:06:29;0.65;;;0.10;;
52734;SDS011;38631;47.572;10.704;2023-08-06T10:08:55;0.25;;;0.08;;
52734;SDS011;38631;47.572;10.704;2023-08-06T10:11:21;0.20;;;0.10;;
52734;SDS011;38631;47.572;10.704;2023-08-06T10:13:49;0.68;;;0.20;;
52734;SDS011;38631;47.572;10.704;2023-08-06T10:16:18;0.57;;;0.10;;
52734;SDS011;38631;47.572;10.704;2023-08-06T10:18:45;0.32;;;0.10;;
52734;SDS011;38631;47.572;10.704;2023-08-06T10:21:12;0.28;;;0.13;;
52734;SDS011;38631;47.572;10.704;2023-08-06T10:23:39;0.00;;;0.00;;
52734;SDS011;38631;47.572;10.704;2023-08-06T10:26:05;0.80;;;0.20;;
52734;SDS011;38631;47.572;10.704;2023-08-06T10:28:34;0.00;;;0.00;;
52734;SDS011;38631;47.572;10.704;2023-08-06T10:33:38;0.30;;;0.17;;
52734;SDS011;38631;47.572;10.704;2023-08-06T10:36:09;0.32;;;0.20;;
52734;SDS011;38631;47.572;10.704;2023-08-06T10:38:36;0.38;;;0.20;;
52734;SDS011;38631;47.572;10.704;2023-08-06T10:41:09;0.35;;;0.25;;
52734;SDS011;38631;47.572;10.704;2023-08-06T10:43:41;0.50;;;0.40;;
52734;SDS011;38631;47.572;10.704;2023-08-06T10:46:20;1.85;;;0.70;;
52734;SDS011;38631;47.572;10.704;2023-08-06T10:48:48;0.60;;;0.40;;
52734;SDS011;38631;47.572;10.704;2023-08-06T10:51:14;0.95;;;0.35;;
52734;SDS011;38631;47.572;10.704;2023-08-06T10:53:46;0.50;;;0.10;;
52734;SDS011;38631;47.572;10.704;2023-08-06T10:56:14;0.70;;;0.40;;
52734;SDS011;38631;47.572;10.704;2023-08-06T10:58:40;1.70;;;0.90;;
52734;SDS011;38631;47.572;10.704;2023-08-06T11:01:06;1.52;;;0.60;;
52734;SDS011;38631;47.572;10.704;2023-08-06T11:03:33;3.33;;;1.67;;
52734;SDS011;38631;47.572;10.704;2023-08-06T11:05:59;2.95;;;1.80;;
52734;SDS011;38631;47.572;10.704;2023-08-06T11:08:25;6.00;;;2.95;;
52734;SDS011;38631;47.572;10.704;2023-08-06T11:10:51;2.78;;;1.30;;
52734;SDS011;38631;47.572;10.704;2023-08-06T11:13:17;1.02;;;0.75;;
52734;SDS011;38631;47.572;10.704;2023-08-06T11:15:43;1.08;;;0.20;;
52734;SDS011;38631;47.572;10.704;2023-08-06T11:18:09;0.35;;;0.20;;
52734;SDS011;38631;47.572;10.704;2023-08-06T11:20:35;0.10;;;0.10;;
52734;SDS011;38631;47.572;10.704;2023-08-06T11:23:01;0.35;;;0.10;;
52734;SDS011;38631;47.572;10.704;2023-08-06T11:25:27;0.25;;;0.20;;
52734;SDS011;38631;47.572;10.704;2023-08-06T11:27:52;1.05;;;0.10;;
52734;SDS011;38631;47.572;10.704;2023-08-06T11:30:18;0.55;;;0.13;;
52734;SDS011;38631;47.572;10.704;2023-08-06T11:32:47;0.65;;;0.13;;
52734;SDS011;38631;47.572;10.704;2023-08-06T11:35:13;0.32;;;0.10;;
52734;SDS011;38631;47.572;10.704;2023-08-06T11:37:39;0.28;;;0.10;;
52734;SDS011;38631;47.572;10.704;2023-08-06T11:40:10;0.50;;;0.10;;
52734;SDS011;38631;47.572;10.704;2023-08-06T11:42:36;0.60;;;0.15;;
52734;SDS011;38631;47.572;10.704;2023-08-06T11:45:02;0.22;;;0.10;;
52734;SDS011;38631;47.572;10.704;2023-08-06T11:47:28;0.13;;;0.10;;
52734;SDS011;38631;47.572;10.704;2023-08-06T11:49:53;0.10;;;0.10;;
52734;SDS011;38631;47.572;10.704;2023-08-06T11:52:20;0.10;;;0.10;;
52734;SDS011;38631;47.572;10.704;2023-08-06T11:54:48;0.20;;;0.20;;
52734;SDS011;38631;47.572;10.704;2023-08-06T11:57:33;0.20;;;0.05;;
52734;SDS011;38631;47.572;10.704;2023-08-06T12:00:05;0.20;;;0.10;;
52734;SDS011;38631;47.572;10.704;2023-08-06T12:02:34;0.15;;;0.10;;
52734;SDS011;38631;47.572;10.704;2023-08-06T12:07:41;0.50;;;0.10;;
52734;SDS011;38631;47.572;10.704;2023-08-06T12:10:10;0.00;;;0.00;;
52734;SDS011;38631;47.572;10.704;2023-08-06T12:12:36;0.15;;;0.00;;
52734;SDS011;38631;47.572;10.704;2023-08-06T12:15:03;0.30;;;0.10;;
52734;SDS011;38631;47.572;10.704;2023-08-06T12:17:29;0.20;;;0.10;;
52734;SDS011;38631;47.572;10.704;2023-08-06T12:19:55;0.13;;;0.10;;
52734;SDS011;38631;47.572;10.704;2023-08-06T12:22:20;0.10;;;0.10;;
52734;SDS011;38631;47.572;10.704;2023-08-06T12:24:46;0.10;;;0.03;;
52734;SDS011;38631;47.572;10.704;2023-08-06T12:27:12;0.22;;;0.13;;
52734;SDS011;38631;47.572;10.704;2023-08-06T12:29:41;0.43;;;0.28;;
52734;SDS011;38631;47.572;10.704;2023-08-06T12:32:08;0.30;;;0.20;;
52734;SDS011;38631;47.572;10.704;2023-08-06T12:34:34;0.50;;;0.20;;
52734;SDS011;38631;47.572;10.704;2023-08-06T12:37:00;0.68;;;0.20;;
52734;SDS011;38631;47.572;10.704;2023-08-06T12:39:27;0.68;;;0.10;;
52734;SDS011;38631;47.572;10.704;2023-08-06T12:41:54;0.40;;;0.20;;
52734;SDS011;38631;47.572;10.704;2023-08-06T12:44:23;1.00;;;0.32;;
52734;SDS011;38631;47.572;10.704;2023-08-06T12:46:49;0.55;;;0.30;;
52734;SDS011;38631;47.572;10.704;2023-08-06T12:49:18;0.90;;;0.60;;
52734;SDS011;38631;47.572;10.704;2023-08-06T12:51:46;0.20;;;0.10;;
52734;SDS011;38631;47.572;10.704;2023-08-06T12:54:11;0.38;;;0.10;;
52734;SDS011;38631;47.572;10.704;2023-08-06T12:56:37;0.10;;;0.00;;
52734;SDS011;38631;47.572;10.704;2023-08-06T12:59:02;0.75;;;0.10;;
52734;SDS011;38631;47.572;10.704;2023-08-06T13:01:28;2.70;;;0.40;;
52734;SDS011;38631;47.572;10.704;2023-08-06T13:03:53;0.13;;;0.10;;
52734;SDS011;38631;47.572;10.704;2023-08-06T13:06:19;0.20;;;0.05;;
52734;SDS011;38631;47.572;10.704;2023-08-06T13:08:44;0.30;;;0.03;;
52734;SDS011;38631;47.572;10.704;2023-08-06T13:11:09;0.20;;;0.10;;
52734;SDS011;38631;47.572;10.704;2023-08-06T13:13:35;0.20;;;0.08;;
52734;SDS011;38631;47.572;10.704;2023-08-06T13:16:00;0.20;;;0.10;;
52734;SDS011;38631;47.572;10.704;2023-08-06T13:18:41;0.55;;;0.30;;
52734;SDS011;38631;47.572;10.704;2023-08-06T13:21:07;0.25;;;0.13;;
52734;SDS011;38631;47.572;10.704;2023-08-06T13:23:32;0.20;;;0.00;;
52734;SDS011;38631;47.572;10.704;2023-08-06T13:25:58;0.00;;;0.00;;
52734;SDS011;38631;47.572;10.704;2023-08-06T13:28:23;0.30;;;0.10;;
52734;SDS011;38631;47.572;10.704;2023-08-06T13:30:49;0.00;;;0.00;;
52734;SDS011;38631;47.572;10.704;2023-08-06T13:33:14;0.00;;;0.00;;
52734;SDS011;38631;47.572;10.704;2023-08-06T13:35:39;0.00;;;0.00;;
52734;SDS011;38631;47.572;10.704;2023-08-06T13:38:06;0.52;;;0.17;;
52734;SDS011;38631;47.572;10.704;2023-08-06T13:40:32;0.13;;;0.10;;
52734;SDS011;38631;47.572;10.704;2023-08-06T13:42:58;0.25;;;0.10;;
52734;SDS011;38631;47.572;10.704;2023-08-06T13:45:23;0.10;;;0.03;;
52734;SDS011;38631;47.572;10.704;2023-08-06T13:47:49;0.00;;;0.00;;
52734;SDS011;38631;47.572;10.704;2023-08-06T13:50:14;0.20;;;0.10;;
52734;SDS011;38631;47.572;10.704;2023-08-06T13:52:40;0.17;;;0.10;;
52734;SDS011;38631;47.572;10.704;2023-08-06T13:55:05;0.85;;;0.10;;
52734;SDS011;38631;47.572;10.704;2023-08-06T13:57:32;0.00;;;0.00;;
52734;SDS011;38631;47.572;10.704;2023-08-06T13:59:57;0.32;;;0.08;;
52734;SDS011;38631;47.572;10.704;2023-08-06T14:02:23;0.00;;;0.00;;
52734;SDS011;38631;47.572;10.704;2023-08-06T14:04:48;0.10;;;0.03;;
52734;SDS011;38631;47.572;10.704;2023-08-06T14:07:13;0.05;;;0.05;;
52734;SDS011;38631;47.572;10.704;2023-08-06T14:09:39;0.05;;;0.00;;
52734;SDS011;38631;47.572;10.704;2023-08-06T14:12:05;0.00;;;0.00;;
52734;SDS011;38631;47.572;10.704;2023-08-06T14:14:31;0.10;;;0.08;;
52734;SDS011;38631;47.572;10.704;2023-08-06T14:16:56;0.00;;;0.00;;
52734;SDS011;38631;47.572;10.704;2023-08-06T14:19:21;0.00;;;0.00;;
52734;SDS011;38631;47.572;10.704;2023-08-06T14:21:47;0.10;;;0.08;;
52734;SDS011;38631;47.572;10.704;2023-08-06T14:24:12;0.00;;;0.00;;
52734;SDS011;38631;47.572;10.704;2023-08-06T14:26:38;0.00;;;0.00;;
52734;SDS011;38631;47.572;10.704;2023-08-06T14:29:03;0.00;;;0.00;;
52734;SDS011;38631;47.572;10.704;2023-08-06T14:31:29;0.00;;;0.00;;
52734;SDS011;38631;47.572;10.704;2023-08-06T14:33:54;0.20;;;0.08;;
52734;SDS011;38631;47.572;10.704;2023-08-06T14:36:20;0.20;;;0.00;;
52734;SDS011;38631;47.572;10.704;2023-08-06T14:38:45;0.10;;;0.00;;
52734;SDS011;38631;47.572;10.704;2023-08-06T14:41:11;0.00;;;0.00;;